sensor_id;sensor_type;location;lat;lon;timestamp;P1;durP1;ratioP1;P2;durP2;ratioP2
68438;SDS011;55421;51.600;5.718;2022-10-16T00:01:37;7.10;;;3.10;;
68438;SDS011;55421;51.600;5.718;2022-10-16T00:04:04;4.60;;;3.00;;
68438;SDS011;55421;51.600;5.718;2022-10-16T00:06:31;5.80;;;3.10;;
68438;SDS011;55421;51.600;5.718;2022-10-16T00:08:58;4.00;;;3.10;;
68438;SDS011;55421;51.600;5.718;2022-10-16T00:11:27;6.60;;;2.60;;
68438;SDS011;55421;51.600;5.718;2022-10-16T00:13:59;7.00;;;3.10;;
68438;SDS011;55421;51.600;5.718;2022-10-16T00:16:28;3.70;;;2.80;;
68438;SDS011;55421;51.600;5.718;2022-10-16T00:18:55;4.20;;;2.60;;
68438;SDS011;55421;51.600;5.718;2022-10-16T00:21:24;5.30;;;3.00;;
68438;SDS011;55421;51.600;5.718;2022-10-16T00:23:55;3.20;;;2.70;;
68438;SDS011;55421;51.600;5.718;2022-10-16T00:26:28;6.20;;;2.50;;
68438;SDS011;55421;51.600;5.718;2022-10-16T00:28:56;3.50;;;2.50;;
68438;SDS011;55421;51.600;5.718;2022-10-16T00:31:25;5.20;;;2.60;;
68438;SDS011;55421;51.600;5.718;2022-10-16T00:33:52;2.60;;;2.40;;
68438;SDS011;55421;51.600;5.718;2022-10-16T00:36:21;7.40;;;3.30;;
68438;SDS011;55421;51.600;5.718;2022-10-16T00:38:51;5.20;;;2.40;;
68438;SDS011;55421;51.600;5.718;2022-10-16T00:41:23;3.40;;;2.30;;
68438;SDS011;55421;51.600;5.718;2022-10-16T00:43:59;4.60;;;2.30;;
68438;SDS011;55421;51.600;5.718;2022-10-16T00:46:40;6.30;;;2.60;;
68438;SDS011;55421;51.600;5.718;2022-10-16T00:49:14;11.00;;;3.50;;
68438;SDS011;55421;51.600;5.718;2022-10-16T00:51:53;4.10;;;2.70;;
68438;SDS011;55421;51.600;5.718;2022-10-16T00:54:26;4.10;;;2.60;;
68438;SDS011;55421;51.600;5.718;2022-10-16T00:56:57;5.20;;;2.70;;
68438;SDS011;55421;51.600;5.718;2022-10-16T00:59:30;5.40;;;2.40;;
68438;SDS011;55421;51.600;5.718;2022-10-16T01:02:01;7.00;;;2.60;;
68438;SDS011;55421;51.600;5.718;2022-10-16T01:04:33;2.40;;;2.00;;
68438;SDS011;55421;51.600;5.718;2022-10-16T01:10:20;5.30;;;2.50;;
68438;SDS011;55421;51.600;5.718;2022-10-16T01:13:42;3.00;;;2.20;;
68438;SDS011;55421;51.600;5.718;2022-10-16T01:16:20;7.50;;;2.40;;
68438;SDS011;55421;51.600;5.718;2022-10-16T01:19:12;2.20;;;1.90;;
68438;SDS011;55421;51.600;5.718;2022-10-16T01:21:44;2.70;;;2.10;;
68438;SDS011;55421;51.600;5.718;2022-10-16T01:24:39;3.50;;;2.50;;
68438;SDS011;55421;51.600;5.718;2022-10-16T01:27:17;2.70;;;2.30;;
68438;SDS011;55421;51.600;5.718;2022-10-16T01:33:02;2.80;;;1.90;;
68438;SDS011;55421;51.600;5.718;2022-10-16T01:35:38;5.70;;;1.70;;
68438;SDS011;55421;51.600;5.718;2022-10-16T01:38:17;5.60;;;1.90;;
68438;SDS011;55421;51.600;5.718;2022-10-16T01:40:54;6.30;;;2.00;;
68438;SDS011;55421;51.600;5.718;2022-10-16T01:43:30;3.50;;;2.00;;
68438;SDS011;55421;51.600;5.718;2022-10-16T01:46:01;4.30;;;2.00;;
68438;SDS011;55421;51.600;5.718;2022-10-16T01:48:29;7.50;;;2.00;;
68438;SDS011;55421;51.600;5.718;2022-10-16T01:51:06;4.40;;;2.20;;
68438;SDS011;55421;51.600;5.718;2022-10-16T01:53:36;5.30;;;1.90;;
68438;SDS011;55421;51.600;5.718;2022-10-16T01:56:06;3.70;;;1.90;;
68438;SDS011;55421;51.600;5.718;2022-10-16T01:58:41;3.70;;;1.90;;
68438;SDS011;55421;51.600;5.718;2022-10-16T02:01:16;3.50;;;1.80;;
68438;SDS011;55421;51.600;5.718;2022-10-16T02:03:49;1.70;;;1.60;;
68438;SDS011;55421;51.600;5.718;2022-10-16T02:06:20;3.50;;;1.90;;
68438;SDS011;55421;51.600;5.718;2022-10-16T02:08:46;2.00;;;1.80;;
68438;SDS011;55421;51.600;5.718;2022-10-16T02:11:14;1.70;;;1.60;;
68438;SDS011;55421;51.600;5.718;2022-10-16T02:13:53;2.40;;;1.80;;
68438;SDS011;55421;51.600;5.718;2022-10-16T02:16:39;3.20;;;1.60;;
68438;SDS011;55421;51.600;5.718;2022-10-16T02:19:12;3.60;;;2.20;;
68438;SDS011;55421;51.600;5.718;2022-10-16T02:21:46;3.70;;;1.90;;
68438;SDS011;55421;51.600;5.718;2022-10-16T02:24:24;2.90;;;1.70;;
68438;SDS011;55421;51.600;5.718;2022-10-16T02:27:06;2.30;;;1.70;;
68438;SDS011;55421;51.600;5.718;2022-10-16T02:29:45;2.10;;;1.80;;
68438;SDS011;55421;51.600;5.718;2022-10-16T02:32:21;2.00;;;1.60;;
68438;SDS011;55421;51.600;5.718;2022-10-16T02:34:51;2.20;;;1.60;;
68438;SDS011;55421;51.600;5.718;2022-10-16T02:37:18;2.80;;;1.50;;
68438;SDS011;55421;51.600;5.718;2022-10-16T02:39:45;7.00;;;1.80;;
68438;SDS011;55421;51.600;5.718;2022-10-16T02:42:12;2.40;;;2.00;;
68438;SDS011;55421;51.600;5.718;2022-10-16T02:44:39;2.90;;;1.70;;
68438;SDS011;55421;51.600;5.718;2022-10-16T02:47:06;2.60;;;1.50;;
68438;SDS011;55421;51.600;5.718;2022-10-16T02:49:32;2.60;;;1.40;;
68438;SDS011;55421;51.600;5.718;2022-10-16T02:51:59;1.40;;;1.30;;
68438;SDS011;55421;51.600;5.718;2022-10-16T02:54:25;2.10;;;1.60;;
68438;SDS011;55421;51.600;5.718;2022-10-16T02:56:52;3.70;;;1.80;;
68438;SDS011;55421;51.600;5.718;2022-10-16T02:59:19;2.80;;;2.10;;
68438;SDS011;55421;51.600;5.718;2022-10-16T03:01:45;2.60;;;1.60;;
68438;SDS011;55421;51.600;5.718;2022-10-16T03:04:12;3.50;;;1.50;;
68438;SDS011;55421;51.600;5.718;2022-10-16T03:06:38;2.70;;;1.60;;
68438;SDS011;55421;51.600;5.718;2022-10-16T03:09:04;3.20;;;1.60;;
68438;SDS011;55421;51.600;5.718;2022-10-16T03:11:32;1.60;;;1.40;;
68438;SDS011;55421;51.600;5.718;2022-10-16T03:13:59;4.10;;;1.70;;
68438;SDS011;55421;51.600;5.718;2022-10-16T03:16:25;9.30;;;1.50;;
68438;SDS011;55421;51.600;5.718;2022-10-16T03:18:51;4.00;;;1.60;;
68438;SDS011;55421;51.600;5.718;2022-10-16T03:21:18;3.30;;;1.50;;
68438;SDS011;55421;51.600;5.718;2022-10-16T03:23:44;3.90;;;1.50;;
68438;SDS011;55421;51.600;5.718;2022-10-16T03:26:11;3.00;;;1.60;;
68438;SDS011;55421;51.600;5.718;2022-10-16T03:28:37;3.60;;;1.70;;
68438;SDS011;55421;51.600;5.718;2022-10-16T03:31:03;1.80;;;1.60;;
68438;SDS011;55421;51.600;5.718;2022-10-16T03:33:30;3.60;;;1.80;;
68438;SDS011;55421;51.600;5.718;2022-10-16T03:35:57;2.20;;;1.60;;
68438;SDS011;55421;51.600;5.718;2022-10-16T03:38:23;1.50;;;1.30;;
68438;SDS011;55421;51.600;5.718;2022-10-16T03:40:50;6.70;;;1.60;;
68438;SDS011;55421;51.600;5.718;2022-10-16T03:43:16;1.40;;;1.30;;
68438;SDS011;55421;51.600;5.718;2022-10-16T03:45:43;2.90;;;1.90;;
68438;SDS011;55421;51.600;5.718;2022-10-16T03:48:09;2.30;;;1.20;;
68438;SDS011;55421;51.600;5.718;2022-10-16T03:50:36;4.30;;;1.60;;
68438;SDS011;55421;51.600;5.718;2022-10-16T03:53:03;1.40;;;1.10;;
68438;SDS011;55421;51.600;5.718;2022-10-16T03:55:29;1.30;;;1.20;;
68438;SDS011;55421;51.600;5.718;2022-10-16T03:57:56;3.70;;;1.60;;
68438;SDS011;55421;51.600;5.718;2022-10-16T04:00:22;4.10;;;1.50;;
68438;SDS011;55421;51.600;5.718;2022-10-16T04:02:48;2.80;;;1.30;;
68438;SDS011;55421;51.600;5.718;2022-10-16T04:05:15;3.30;;;1.40;;
68438;SDS011;55421;51.600;5.718;2022-10-16T04:07:41;1.80;;;1.20;;
68438;SDS011;55421;51.600;5.718;2022-10-16T04:10:08;1.60;;;1.50;;
68438;SDS011;55421;51.600;5.718;2022-10-16T04:12:34;4.80;;;1.60;;
68438;SDS011;55421;51.600;5.718;2022-10-16T04:15:01;1.50;;;1.40;;
68438;SDS011;55421;51.600;5.718;2022-10-16T04:17:27;1.60;;;1.20;;
68438;SDS011;55421;51.600;5.718;2022-10-16T04:19:54;1.70;;;1.30;;
68438;SDS011;55421;51.600;5.718;2022-10-16T04:22:20;9.10;;;1.40;;
68438;SDS011;55421;51.600;5.718;2022-10-16T04:24:47;4.30;;;1.50;;
68438;SDS011;55421;51.600;5.718;2022-10-16T04:27:13;6.80;;;1.10;;
68438;SDS011;55421;51.600;5.718;2022-10-16T04:29:39;2.90;;;1.40;;
68438;SDS011;55421;51.600;5.718;2022-10-16T04:32:08;3.60;;;1.40;;
68438;SDS011;55421;51.600;5.718;2022-10-16T04:34:35;3.50;;;1.40;;
68438;SDS011;55421;51.600;5.718;2022-10-16T04:37:02;3.60;;;1.50;;
68438;SDS011;55421;51.600;5.718;2022-10-16T04:39:29;2.10;;;1.50;;
68438;SDS011;55421;51.600;5.718;2022-10-16T04:41:55;5.90;;;1.40;;
68438;SDS011;55421;51.600;5.718;2022-10-16T04:44:21;1.50;;;1.40;;
68438;SDS011;55421;51.600;5.718;2022-10-16T04:46:50;2.30;;;1.30;;
68438;SDS011;55421;51.600;5.718;2022-10-16T04:49:17;2.70;;;1.40;;
68438;SDS011;55421;51.600;5.718;2022-10-16T04:51:43;3.70;;;1.80;;
68438;SDS011;55421;51.600;5.718;2022-10-16T04:54:10;1.80;;;1.50;;
68438;SDS011;55421;51.600;5.718;2022-10-16T04:56:36;4.10;;;1.40;;
68438;SDS011;55421;51.600;5.718;2022-10-16T04:59:09;3.10;;;1.20;;
68438;SDS011;55421;51.600;5.718;2022-10-16T05:01:35;2.20;;;1.40;;
68438;SDS011;55421;51.600;5.718;2022-10-16T05:04:02;1.40;;;1.30;;
68438;SDS011;55421;51.600;5.718;2022-10-16T05:06:28;2.40;;;1.10;;
68438;SDS011;55421;51.600;5.718;2022-10-16T05:08:54;2.00;;;1.50;;
68438;SDS011;55421;51.600;5.718;2022-10-16T05:11:21;3.00;;;1.30;;
68438;SDS011;55421;51.600;5.718;2022-10-16T05:13:49;4.50;;;1.50;;
68438;SDS011;55421;51.600;5.718;2022-10-16T05:16:16;1.80;;;1.20;;
68438;SDS011;55421;51.600;5.718;2022-10-16T05:18:42;4.30;;;1.20;;
68438;SDS011;55421;51.600;5.718;2022-10-16T05:21:09;2.80;;;1.60;;
68438;SDS011;55421;51.600;5.718;2022-10-16T05:23:35;2.70;;;1.50;;
68438;SDS011;55421;51.600;5.718;2022-10-16T05:26:01;2.60;;;1.50;;
68438;SDS011;55421;51.600;5.718;2022-10-16T05:28:29;4.20;;;1.40;;
68438;SDS011;55421;51.600;5.718;2022-10-16T05:30:56;3.00;;;1.60;;
68438;SDS011;55421;51.600;5.718;2022-10-16T05:33:25;3.90;;;1.40;;
68438;SDS011;55421;51.600;5.718;2022-10-16T05:35:51;4.20;;;1.50;;
68438;SDS011;55421;51.600;5.718;2022-10-16T05:38:18;2.20;;;1.60;;
68438;SDS011;55421;51.600;5.718;2022-10-16T05:40:51;2.20;;;1.40;;
68438;SDS011;55421;51.600;5.718;2022-10-16T05:43:19;1.90;;;1.60;;
68438;SDS011;55421;51.600;5.718;2022-10-16T05:45:57;5.20;;;1.70;;
68438;SDS011;55421;51.600;5.718;2022-10-16T05:48:25;2.30;;;1.30;;
68438;SDS011;55421;51.600;5.718;2022-10-16T05:50:57;1.40;;;1.30;;
68438;SDS011;55421;51.600;5.718;2022-10-16T05:53:27;2.00;;;1.40;;
68438;SDS011;55421;51.600;5.718;2022-10-16T05:55:55;2.60;;;1.50;;
68438;SDS011;55421;51.600;5.718;2022-10-16T05:58:22;1.60;;;1.50;;
68438;SDS011;55421;51.600;5.718;2022-10-16T06:00:55;3.00;;;1.60;;
68438;SDS011;55421;51.600;5.718;2022-10-16T06:03:23;3.40;;;1.50;;
68438;SDS011;55421;51.600;5.718;2022-10-16T06:05:50;2.70;;;1.40;;
68438;SDS011;55421;51.600;5.718;2022-10-16T06:08:18;2.00;;;1.30;;
68438;SDS011;55421;51.600;5.718;2022-10-16T06:10:47;2.00;;;1.50;;
68438;SDS011;55421;51.600;5.718;2022-10-16T06:13:14;2.80;;;1.70;;
68438;SDS011;55421;51.600;5.718;2022-10-16T06:15:42;2.30;;;1.90;;
68438;SDS011;55421;51.600;5.718;2022-10-16T06:18:09;2.00;;;1.70;;
68438;SDS011;55421;51.600;5.718;2022-10-16T06:20:37;2.10;;;1.70;;
68438;SDS011;55421;51.600;5.718;2022-10-16T06:23:03;1.50;;;1.20;;
68438;SDS011;55421;51.600;5.718;2022-10-16T06:25:31;3.30;;;1.70;;
68438;SDS011;55421;51.600;5.718;2022-10-16T06:27:57;3.40;;;1.40;;
68438;SDS011;55421;51.600;5.718;2022-10-16T06:30:24;3.10;;;1.60;;
68438;SDS011;55421;51.600;5.718;2022-10-16T06:32:50;1.80;;;1.40;;
68438;SDS011;55421;51.600;5.718;2022-10-16T06:35:17;2.40;;;1.70;;
68438;SDS011;55421;51.600;5.718;2022-10-16T06:37:43;6.70;;;1.60;;
68438;SDS011;55421;51.600;5.718;2022-10-16T06:40:10;4.00;;;1.50;;
68438;SDS011;55421;51.600;5.718;2022-10-16T06:42:36;4.20;;;1.60;;
68438;SDS011;55421;51.600;5.718;2022-10-16T06:45:02;2.70;;;1.60;;
68438;SDS011;55421;51.600;5.718;2022-10-16T06:47:29;3.10;;;1.80;;
68438;SDS011;55421;51.600;5.718;2022-10-16T06:49:55;4.00;;;1.70;;
68438;SDS011;55421;51.600;5.718;2022-10-16T06:52:22;2.60;;;1.50;;
68438;SDS011;55421;51.600;5.718;2022-10-16T06:54:49;2.20;;;1.60;;
68438;SDS011;55421;51.600;5.718;2022-10-16T06:57:16;4.10;;;1.40;;
68438;SDS011;55421;51.600;5.718;2022-10-16T06:59:42;1.30;;;1.20;;
68438;SDS011;55421;51.600;5.718;2022-10-16T07:02:08;4.40;;;1.70;;
68438;SDS011;55421;51.600;5.718;2022-10-16T07:04:36;3.70;;;1.80;;
68438;SDS011;55421;51.600;5.718;2022-10-16T07:07:02;1.80;;;1.60;;
68438;SDS011;55421;51.600;5.718;2022-10-16T07:09:29;2.50;;;1.50;;
68438;SDS011;55421;51.600;5.718;2022-10-16T07:11:55;2.00;;;1.70;;
68438;SDS011;55421;51.600;5.718;2022-10-16T07:14:22;3.90;;;1.80;;
68438;SDS011;55421;51.600;5.718;2022-10-16T07:16:48;2.10;;;1.80;;
68438;SDS011;55421;51.600;5.718;2022-10-16T07:19:15;2.30;;;1.70;;
68438;SDS011;55421;51.600;5.718;2022-10-16T07:21:44;3.40;;;2.00;;
68438;SDS011;55421;51.600;5.718;2022-10-16T07:24:13;4.80;;;1.90;;
68438;SDS011;55421;51.600;5.718;2022-10-16T07:26:43;2.90;;;1.50;;
68438;SDS011;55421;51.600;5.718;2022-10-16T07:29:13;2.60;;;1.80;;
68438;SDS011;55421;51.600;5.718;2022-10-16T07:31:42;1.70;;;1.60;;
68438;SDS011;55421;51.600;5.718;2022-10-16T07:34:09;4.30;;;1.80;;
68438;SDS011;55421;51.600;5.718;2022-10-16T07:36:37;5.60;;;1.80;;
68438;SDS011;55421;51.600;5.718;2022-10-16T07:39:03;2.90;;;1.60;;
68438;SDS011;55421;51.600;5.718;2022-10-16T07:41:30;3.90;;;1.80;;
68438;SDS011;55421;51.600;5.718;2022-10-16T07:43:58;4.70;;;1.80;;
68438;SDS011;55421;51.600;5.718;2022-10-16T07:46:27;5.20;;;1.90;;
68438;SDS011;55421;51.600;5.718;2022-10-16T07:48:54;4.50;;;1.80;;
68438;SDS011;55421;51.600;5.718;2022-10-16T07:51:22;2.60;;;1.70;;
68438;SDS011;55421;51.600;5.718;2022-10-16T07:53:51;1.90;;;1.80;;
68438;SDS011;55421;51.600;5.718;2022-10-16T07:56:18;2.40;;;1.60;;
68438;SDS011;55421;51.600;5.718;2022-10-16T07:58:46;4.40;;;1.60;;
68438;SDS011;55421;51.600;5.718;2022-10-16T08:01:16;3.50;;;1.90;;
68438;SDS011;55421;51.600;5.718;2022-10-16T08:03:44;3.90;;;1.60;;
68438;SDS011;55421;51.600;5.718;2022-10-16T08:06:12;3.90;;;2.00;;
68438;SDS011;55421;51.600;5.718;2022-10-16T08:08:39;2.40;;;1.60;;
68438;SDS011;55421;51.600;5.718;2022-10-16T08:11:05;5.30;;;1.90;;
68438;SDS011;55421;51.600;5.718;2022-10-16T08:13:32;3.60;;;1.60;;
68438;SDS011;55421;51.600;5.718;2022-10-16T08:15:58;4.70;;;1.50;;
68438;SDS011;55421;51.600;5.718;2022-10-16T08:18:25;1.90;;;1.40;;
68438;SDS011;55421;51.600;5.718;2022-10-16T08:20:56;2.40;;;1.60;;
68438;SDS011;55421;51.600;5.718;2022-10-16T08:23:24;3.60;;;1.70;;
68438;SDS011;55421;51.600;5.718;2022-10-16T08:25:55;3.70;;;1.60;;
68438;SDS011;55421;51.600;5.718;2022-10-16T08:28:28;6.90;;;1.60;;
68438;SDS011;55421;51.600;5.718;2022-10-16T08:30:54;4.80;;;1.40;;
68438;SDS011;55421;51.600;5.718;2022-10-16T08:33:22;3.40;;;1.50;;
68438;SDS011;55421;51.600;5.718;2022-10-16T08:35:52;4.40;;;1.30;;
68438;SDS011;55421;51.600;5.718;2022-10-16T08:38:20;3.40;;;1.70;;
68438;SDS011;55421;51.600;5.718;2022-10-16T08:40:46;5.30;;;1.90;;
68438;SDS011;55421;51.600;5.718;2022-10-16T08:43:21;1.70;;;1.40;;
68438;SDS011;55421;51.600;5.718;2022-10-16T08:46:20;8.00;;;1.80;;
68438;SDS011;55421;51.600;5.718;2022-10-16T08:48:59;5.10;;;1.40;;
68438;SDS011;55421;51.600;5.718;2022-10-16T08:51:29;2.50;;;1.60;;
68438;SDS011;55421;51.600;5.718;2022-10-16T08:54:26;5.20;;;1.40;;
68438;SDS011;55421;51.600;5.718;2022-10-16T08:57:16;4.40;;;1.30;;
68438;SDS011;55421;51.600;5.718;2022-10-16T08:59:46;6.70;;;1.60;;
68438;SDS011;55421;51.600;5.718;2022-10-16T09:02:26;2.10;;;1.50;;
68438;SDS011;55421;51.600;5.718;2022-10-16T09:08:08;2.20;;;1.50;;
68438;SDS011;55421;51.600;5.718;2022-10-16T09:10:56;2.80;;;1.40;;
68438;SDS011;55421;51.600;5.718;2022-10-16T09:19:20;3.60;;;1.40;;
68438;SDS011;55421;51.600;5.718;2022-10-16T09:21:55;6.70;;;2.00;;
68438;SDS011;55421;51.600;5.718;2022-10-16T09:24:25;3.00;;;1.50;;
68438;SDS011;55421;51.600;5.718;2022-10-16T09:26:52;5.10;;;1.80;;
68438;SDS011;55421;51.600;5.718;2022-10-16T09:29:20;4.20;;;1.30;;
68438;SDS011;55421;51.600;5.718;2022-10-16T09:31:48;2.70;;;1.40;;
68438;SDS011;55421;51.600;5.718;2022-10-16T09:36:52;4.10;;;1.90;;
68438;SDS011;55421;51.600;5.718;2022-10-16T09:39:19;4.30;;;1.80;;
68438;SDS011;55421;51.600;5.718;2022-10-16T09:41:45;3.50;;;1.30;;
68438;SDS011;55421;51.600;5.718;2022-10-16T09:44:26;6.50;;;1.70;;
68438;SDS011;55421;51.600;5.718;2022-10-16T09:47:15;5.60;;;1.50;;
68438;SDS011;55421;51.600;5.718;2022-10-16T09:49:56;5.60;;;1.40;;
68438;SDS011;55421;51.600;5.718;2022-10-16T09:52:28;6.00;;;1.50;;
68438;SDS011;55421;51.600;5.718;2022-10-16T09:55:00;7.70;;;1.50;;
68438;SDS011;55421;51.600;5.718;2022-10-16T09:57:49;3.50;;;1.60;;
68438;SDS011;55421;51.600;5.718;2022-10-16T10:00:17;5.60;;;1.60;;
68438;SDS011;55421;51.600;5.718;2022-10-16T10:02:45;8.00;;;2.20;;
68438;SDS011;55421;51.600;5.718;2022-10-16T10:05:21;3.50;;;1.70;;
68438;SDS011;55421;51.600;5.718;2022-10-16T10:07:58;6.30;;;1.50;;
68438;SDS011;55421;51.600;5.718;2022-10-16T10:10:30;11.70;;;2.00;;
68438;SDS011;55421;51.600;5.718;2022-10-16T10:12:59;3.80;;;1.50;;
68438;SDS011;55421;51.600;5.718;2022-10-16T10:15:28;5.00;;;1.40;;
68438;SDS011;55421;51.600;5.718;2022-10-16T10:18:00;7.20;;;1.70;;
68438;SDS011;55421;51.600;5.718;2022-10-16T10:20:34;5.70;;;1.30;;
68438;SDS011;55421;51.600;5.718;2022-10-16T10:23:33;4.00;;;1.20;;
68438;SDS011;55421;51.600;5.718;2022-10-16T10:26:13;5.80;;;1.50;;
68438;SDS011;55421;51.600;5.718;2022-10-16T10:29:00;6.60;;;1.70;;
68438;SDS011;55421;51.600;5.718;2022-10-16T10:31:49;8.50;;;2.10;;
68438;SDS011;55421;51.600;5.718;2022-10-16T10:34:41;13.40;;;3.00;;
68438;SDS011;55421;51.600;5.718;2022-10-16T10:37:44;9.50;;;2.60;;
68438;SDS011;55421;51.600;5.718;2022-10-16T10:40:45;6.30;;;2.20;;
68438;SDS011;55421;51.600;5.718;2022-10-16T10:46:03;7.00;;;1.70;;
68438;SDS011;55421;51.600;5.718;2022-10-16T10:58:20;8.90;;;1.60;;
68438;SDS011;55421;51.600;5.718;2022-10-16T11:01:35;9.50;;;1.40;;
68438;SDS011;55421;51.600;5.718;2022-10-16T11:07:20;9.20;;;1.70;;
68438;SDS011;55421;51.600;5.718;2022-10-16T11:09:56;9.60;;;2.70;;
68438;SDS011;55421;51.600;5.718;2022-10-16T11:12:35;8.40;;;1.70;;
68438;SDS011;55421;51.600;5.718;2022-10-16T11:15:21;7.40;;;1.70;;
68438;SDS011;55421;51.600;5.718;2022-10-16T11:18:04;5.60;;;1.40;;
68438;SDS011;55421;51.600;5.718;2022-10-16T11:20:42;7.00;;;1.60;;
68438;SDS011;55421;51.600;5.718;2022-10-16T11:23:20;4.40;;;1.30;;
68438;SDS011;55421;51.600;5.718;2022-10-16T11:26:01;8.80;;;1.50;;
68438;SDS011;55421;51.600;5.718;2022-10-16T11:28:39;5.80;;;1.50;;
68438;SDS011;55421;51.600;5.718;2022-10-16T11:31:36;5.40;;;1.70;;
68438;SDS011;55421;51.600;5.718;2022-10-16T11:34:12;7.30;;;1.30;;
68438;SDS011;55421;51.600;5.718;2022-10-16T11:36:53;9.10;;;1.70;;
68438;SDS011;55421;51.600;5.718;2022-10-16T11:39:38;7.20;;;1.60;;
68438;SDS011;55421;51.600;5.718;2022-10-16T11:42:11;4.00;;;1.60;;
68438;SDS011;55421;51.600;5.718;2022-10-16T11:47:48;8.70;;;1.30;;
68438;SDS011;55421;51.600;5.718;2022-10-16T11:53:42;7.20;;;1.50;;
68438;SDS011;55421;51.600;5.718;2022-10-16T11:56:20;6.90;;;1.60;;
68438;SDS011;55421;51.600;5.718;2022-10-16T11:59:01;8.10;;;1.50;;
68438;SDS011;55421;51.600;5.718;2022-10-16T12:01:39;7.30;;;1.60;;
68438;SDS011;55421;51.600;5.718;2022-10-16T12:04:25;6.10;;;1.50;;
68438;SDS011;55421;51.600;5.718;2022-10-16T12:07:14;6.20;;;1.30;;
68438;SDS011;55421;51.600;5.718;2022-10-16T12:09:44;8.30;;;1.70;;
68438;SDS011;55421;51.600;5.718;2022-10-16T12:15:19;8.70;;;1.50;;
68438;SDS011;55421;51.600;5.718;2022-10-16T12:17:48;10.10;;;1.80;;
68438;SDS011;55421;51.600;5.718;2022-10-16T12:20:24;7.00;;;1.60;;
68438;SDS011;55421;51.600;5.718;2022-10-16T12:22:56;7.10;;;1.60;;
68438;SDS011;55421;51.600;5.718;2022-10-16T12:25:33;6.20;;;1.80;;
68438;SDS011;55421;51.600;5.718;2022-10-16T12:28:05;9.80;;;1.60;;
68438;SDS011;55421;51.600;5.718;2022-10-16T12:30:52;5.80;;;1.60;;
68438;SDS011;55421;51.600;5.718;2022-10-16T12:33:29;6.80;;;1.30;;
68438;SDS011;55421;51.600;5.718;2022-10-16T12:35:59;8.30;;;1.30;;
68438;SDS011;55421;51.600;5.718;2022-10-16T12:38:48;6.10;;;1.30;;
68438;SDS011;55421;51.600;5.718;2022-10-16T12:41:34;8.70;;;1.80;;
68438;SDS011;55421;51.600;5.718;2022-10-16T12:44:03;7.80;;;1.60;;
68438;SDS011;55421;51.600;5.718;2022-10-16T12:51:38;5.20;;;1.40;;
68438;SDS011;55421;51.600;5.718;2022-10-16T12:54:12;5.80;;;1.40;;
68438;SDS011;55421;51.600;5.718;2022-10-16T13:00:12;3.60;;;1.30;;
68438;SDS011;55421;51.600;5.718;2022-10-16T13:08:44;4.30;;;1.30;;
68438;SDS011;55421;51.600;5.718;2022-10-16T13:12:01;3.90;;;1.00;;
68438;SDS011;55421;51.600;5.718;2022-10-16T13:18:05;6.60;;;1.30;;
68438;SDS011;55421;51.600;5.718;2022-10-16T13:29:54;4.30;;;1.10;;
68438;SDS011;55421;51.600;5.718;2022-10-16T13:32:28;6.70;;;1.20;;
68438;SDS011;55421;51.600;5.718;2022-10-16T13:34:55;4.10;;;1.00;;
68438;SDS011;55421;51.600;5.718;2022-10-16T13:37:24;5.40;;;0.90;;
68438;SDS011;55421;51.600;5.718;2022-10-16T13:40:02;3.90;;;1.10;;
68438;SDS011;55421;51.600;5.718;2022-10-16T13:42:43;6.70;;;1.20;;
68438;SDS011;55421;51.600;5.718;2022-10-16T13:45:20;5.20;;;1.30;;
68438;SDS011;55421;51.600;5.718;2022-10-16T13:47:48;3.60;;;1.10;;
68438;SDS011;55421;51.600;5.718;2022-10-16T13:50:17;6.10;;;1.50;;
68438;SDS011;55421;51.600;5.718;2022-10-16T13:52:44;3.50;;;1.40;;
68438;SDS011;55421;51.600;5.718;2022-10-16T13:55:12;4.70;;;1.20;;
68438;SDS011;55421;51.600;5.718;2022-10-16T13:57:41;5.10;;;1.40;;
68438;SDS011;55421;51.600;5.718;2022-10-16T14:00:25;4.00;;;1.20;;
68438;SDS011;55421;51.600;5.718;2022-10-16T14:03:02;3.20;;;1.00;;
68438;SDS011;55421;51.600;5.718;2022-10-16T14:05:31;2.10;;;0.90;;
68438;SDS011;55421;51.600;5.718;2022-10-16T14:07:59;3.50;;;1.40;;
68438;SDS011;55421;51.600;5.718;2022-10-16T14:10:31;6.50;;;1.30;;
68438;SDS011;55421;51.600;5.718;2022-10-16T14:13:04;3.50;;;1.60;;
68438;SDS011;55421;51.600;5.718;2022-10-16T14:15:35;5.40;;;1.40;;
68438;SDS011;55421;51.600;5.718;2022-10-16T14:18:03;4.00;;;1.60;;
68438;SDS011;55421;51.600;5.718;2022-10-16T14:20:32;5.60;;;1.40;;
68438;SDS011;55421;51.600;5.718;2022-10-16T14:25:44;4.50;;;1.80;;
68438;SDS011;55421;51.600;5.718;2022-10-16T14:30:56;5.80;;;2.00;;
68438;SDS011;55421;51.600;5.718;2022-10-16T14:38:41;4.60;;;1.60;;
68438;SDS011;55421;51.600;5.718;2022-10-16T14:41:14;4.50;;;1.30;;
68438;SDS011;55421;51.600;5.718;2022-10-16T14:43:42;5.20;;;1.20;;
68438;SDS011;55421;51.600;5.718;2022-10-16T14:46:13;2.50;;;1.10;;
68438;SDS011;55421;51.600;5.718;2022-10-16T14:48:50;4.90;;;1.20;;
68438;SDS011;55421;51.600;5.718;2022-10-16T14:51:18;6.70;;;1.30;;
68438;SDS011;55421;51.600;5.718;2022-10-16T14:53:46;5.30;;;1.50;;
68438;SDS011;55421;51.600;5.718;2022-10-16T14:56:18;1.90;;;1.00;;
68438;SDS011;55421;51.600;5.718;2022-10-16T14:58:48;3.90;;;1.40;;
68438;SDS011;55421;51.600;5.718;2022-10-16T15:01:17;2.50;;;1.20;;
68438;SDS011;55421;51.600;5.718;2022-10-16T15:03:44;2.30;;;1.00;;
68438;SDS011;55421;51.600;5.718;2022-10-16T15:06:11;3.40;;;1.10;;
68438;SDS011;55421;51.600;5.718;2022-10-16T15:08:39;4.00;;;1.30;;
68438;SDS011;55421;51.600;5.718;2022-10-16T15:11:12;4.70;;;1.20;;
68438;SDS011;55421;51.600;5.718;2022-10-16T15:13:40;3.70;;;1.10;;
68438;SDS011;55421;51.600;5.718;2022-10-16T15:16:11;6.10;;;1.20;;
68438;SDS011;55421;51.600;5.718;2022-10-16T15:18:39;3.50;;;1.20;;
68438;SDS011;55421;51.600;5.718;2022-10-16T15:21:05;3.80;;;1.30;;
68438;SDS011;55421;51.600;5.718;2022-10-16T15:23:32;4.70;;;1.20;;
68438;SDS011;55421;51.600;5.718;2022-10-16T15:25:59;8.20;;;1.30;;
68438;SDS011;55421;51.600;5.718;2022-10-16T15:28:26;3.10;;;1.20;;
68438;SDS011;55421;51.600;5.718;2022-10-16T15:30:54;6.00;;;1.40;;
68438;SDS011;55421;51.600;5.718;2022-10-16T15:33:26;2.60;;;1.40;;
68438;SDS011;55421;51.600;5.718;2022-10-16T15:35:55;5.00;;;1.50;;
68438;SDS011;55421;51.600;5.718;2022-10-16T15:38:22;4.00;;;1.30;;
68438;SDS011;55421;51.600;5.718;2022-10-16T15:40:49;1.90;;;1.30;;
68438;SDS011;55421;51.600;5.718;2022-10-16T15:43:16;4.00;;;1.20;;
68438;SDS011;55421;51.600;5.718;2022-10-16T15:45:42;3.80;;;1.40;;
68438;SDS011;55421;51.600;5.718;2022-10-16T15:48:11;3.60;;;1.30;;
68438;SDS011;55421;51.600;5.718;2022-10-16T15:50:39;3.70;;;1.60;;
68438;SDS011;55421;51.600;5.718;2022-10-16T15:53:06;5.90;;;1.50;;
68438;SDS011;55421;51.600;5.718;2022-10-16T15:55:33;3.60;;;1.60;;
68438;SDS011;55421;51.600;5.718;2022-10-16T15:58:00;4.20;;;1.70;;
68438;SDS011;55421;51.600;5.718;2022-10-16T16:00:26;5.00;;;1.80;;
68438;SDS011;55421;51.600;5.718;2022-10-16T16:02:53;5.30;;;1.40;;
68438;SDS011;55421;51.600;5.718;2022-10-16T16:05:21;5.20;;;1.30;;
68438;SDS011;55421;51.600;5.718;2022-10-16T16:07:49;4.40;;;1.60;;
68438;SDS011;55421;51.600;5.718;2022-10-16T16:10:17;4.40;;;1.50;;
68438;SDS011;55421;51.600;5.718;2022-10-16T16:12:46;4.60;;;1.30;;
68438;SDS011;55421;51.600;5.718;2022-10-16T16:15:21;13.70;;;2.60;;
68438;SDS011;55421;51.600;5.718;2022-10-16T16:17:48;10.70;;;2.10;;
68438;SDS011;55421;51.600;5.718;2022-10-16T16:20:15;19.30;;;3.10;;
68438;SDS011;55421;51.600;5.718;2022-10-16T16:22:42;4.80;;;1.40;;
68438;SDS011;55421;51.600;5.718;2022-10-16T16:25:09;3.40;;;1.40;;
68438;SDS011;55421;51.600;5.718;2022-10-16T16:27:35;2.70;;;1.50;;
68438;SDS011;55421;51.600;5.718;2022-10-16T16:30:06;3.60;;;1.70;;
68438;SDS011;55421;51.600;5.718;2022-10-16T16:32:34;4.10;;;1.60;;
68438;SDS011;55421;51.600;5.718;2022-10-16T16:35:02;4.70;;;1.70;;